createdAt,value
2023-04-12T00:01:04.402Z,56.42
2023-04-12T00:03:34.349Z,56.35
2023-04-12T00:06:03.244Z,56.39
2023-04-12T00:08:33.330Z,56.48
2023-04-12T00:11:01.072Z,56.30
2023-04-12T00:13:28.782Z,56.66
2023-04-12T00:15:56.055Z,56.55
2023-04-12T00:18:25.244Z,56.56
2023-04-12T00:20:53.149Z,56.40
2023-04-12T00:23:20.509Z,56.52
2023-04-12T00:25:47.620Z,56.47
2023-04-12T00:28:16.020Z,56.44
2023-04-12T00:30:43.877Z,56.47
2023-04-12T00:33:10.821Z,56.38
2023-04-12T00:35:37.741Z,56.43
2023-04-12T00:38:06.228Z,56.54
2023-04-12T00:40:33.267Z,56.57
2023-04-12T00:43:00.978Z,56.24
2023-04-12T00:45:27.944Z,56.51
2023-04-12T00:47:56.432Z,56.70
2023-04-12T00:50:24.044Z,56.62
2023-04-12T00:52:52.021Z,56.66
2023-04-12T00:55:19.013Z,56.56
2023-04-12T00:57:46.802Z,56.60
2023-04-12T01:00:14.197Z,56.56
2023-04-12T01:02:47.703Z,56.86
2023-04-12T01:05:21.970Z,57.16
2023-04-12T01:08:12.004Z,57.22
2023-04-12T01:10:50.913Z,57.34
2023-04-12T01:13:35.052Z,57.59
2023-04-12T01:16:40.763Z,57.69
2023-04-12T01:20:06.375Z,57.41
2023-04-12T01:23:28.371Z,57.66
2023-04-12T01:26:32.940Z,57.69
2023-04-12T01:29:08.158Z,57.63
2023-04-12T01:31:36.927Z,57.69
2023-04-12T01:34:06.147Z,57.68
2023-04-12T01:36:34.739Z,57.98
2023-04-12T01:39:04.790Z,57.97
2023-04-12T01:41:33.146Z,57.98
2023-04-12T01:44:00.143Z,58.01
2023-04-12T01:46:27.067Z,58.27
2023-04-12T01:48:55.969Z,58.26
2023-04-12T01:51:42.193Z,58.66
2023-04-12T01:54:13.281Z,58.56
2023-04-12T01:56:44.952Z,58.69
2023-04-12T01:59:16.173Z,58.53
2023-04-12T02:01:44.472Z,58.56
2023-04-12T02:04:12.229Z,58.66
2023-04-12T02:06:41.016Z,58.65
2023-04-12T02:09:09.702Z,58.57
2023-04-12T02:11:36.658Z,58.55
2023-04-12T02:14:03.549Z,58.74
2023-04-12T02:16:32.400Z,58.83
2023-04-12T02:19:00.647Z,58.78
2023-04-12T02:21:27.920Z,58.92
2023-04-12T02:23:55.226Z,58.88
2023-04-12T02:26:23.401Z,59.04
2023-04-12T02:28:52.641Z,59.23
2023-04-12T02:31:19.681Z,58.89
2023-04-12T02:33:49.082Z,58.98
2023-04-12T02:36:16.298Z,58.84
2023-04-12T02:38:43.434Z,58.69
2023-04-12T02:41:22.051Z,58.80
2023-04-12T02:43:49.672Z,58.66
2023-04-12T02:46:23.877Z,58.67
2023-04-12T02:48:56.574Z,58.52
2023-04-12T02:51:32.221Z,58.59
2023-04-12T02:54:00.440Z,58.59
2023-04-12T02:56:36.184Z,58.64
2023-04-12T02:59:11.560Z,58.65
2023-04-12T03:01:58.574Z,58.39
2023-04-12T03:04:30.778Z,58.48
2023-04-12T03:07:00.329Z,58.48
2023-04-12T03:09:50.699Z,58.34
2023-04-12T03:12:19.911Z,58.32
2023-04-12T03:15:08.044Z,58.45
2023-04-12T03:17:35.044Z,58.53
2023-04-12T03:20:10.134Z,58.44
2023-04-12T03:22:40.433Z,58.44
2023-04-12T03:25:10.235Z,58.64
2023-04-12T03:27:41.543Z,58.51
2023-04-12T03:30:10.381Z,58.66
2023-04-12T03:32:42.669Z,58.59
2023-04-12T03:35:11.590Z,58.78
2023-04-12T03:37:43.196Z,59.00
2023-04-12T03:40:12.020Z,58.77
2023-04-12T03:42:42.825Z,59.03
2023-04-12T03:45:14.758Z,58.81
2023-04-12T03:47:46.250Z,58.82
2023-04-12T03:50:14.579Z,58.74
2023-04-12T03:52:47.695Z,58.82
2023-04-12T03:55:18.274Z,59.03
2023-04-12T03:57:46.901Z,58.89
2023-04-12T04:00:14.971Z,59.07
2023-04-12T04:03:14.330Z,58.91
2023-04-12T04:05:45.829Z,58.95
2023-04-12T04:08:14.061Z,58.93
2023-04-12T04:11:01.365Z,58.83
2023-04-12T04:13:34.969Z,58.85
2023-04-12T04:16:07.360Z,58.91
2023-04-12T04:18:35.971Z,59.09
2023-04-12T04:21:03.351Z,58.93
2023-04-12T04:23:39.142Z,59.25
2023-04-12T04:26:10.485Z,59.19
2023-04-12T04:28:44.964Z,58.92
2023-04-12T04:31:17.379Z,59.57
2023-04-12T04:33:47.741Z,59.78
2023-04-12T04:36:15.772Z,59.86
2023-04-12T04:38:48.174Z,60.02
2023-04-12T04:41:26.432Z,60.22
2023-04-12T04:44:00.551Z,59.99
2023-04-12T04:46:32.108Z,60.10
2023-04-12T04:49:00.125Z,60.24
2023-04-12T04:51:27.359Z,60.19
2023-04-12T04:53:56.723Z,60.17
2023-04-12T04:56:25.025Z,59.85
2023-04-12T04:58:54.746Z,59.80
2023-04-12T05:01:28.423Z,60.00
2023-04-12T05:03:57.408Z,60.21
2023-04-12T05:06:27.459Z,60.01
2023-04-12T05:08:56.642Z,60.25
2023-04-12T05:11:23.810Z,60.25
2023-04-12T05:13:51.328Z,60.50
2023-04-12T05:16:18.399Z,60.47
2023-04-12T05:18:46.069Z,60.24
2023-04-12T05:21:13.055Z,60.28
2023-04-12T05:23:46.884Z,60.48
2023-04-12T05:26:14.337Z,60.36
2023-04-12T05:28:45.892Z,60.69
2023-04-12T05:31:13.574Z,60.83
2023-04-12T05:33:40.530Z,61.02
2023-04-12T05:36:07.978Z,61.05
2023-04-12T05:38:34.938Z,61.28
2023-04-12T05:41:05.820Z,61.33
2023-04-12T05:43:33.902Z,61.64
2023-04-12T05:46:02.077Z,61.41
2023-04-12T05:48:30.431Z,61.44
2023-04-12T05:51:02.708Z,61.63
2023-04-12T05:53:32.766Z,61.68
2023-04-12T05:56:02.693Z,61.78
2023-04-12T05:58:30.291Z,61.90
2023-04-12T06:00:57.616Z,61.86
2023-04-12T06:03:25.307Z,61.87
2023-04-12T06:05:54.386Z,61.85
2023-04-12T06:08:21.308Z,61.97
2023-04-12T06:10:48.188Z,62.19
2023-04-12T06:13:15.352Z,62.05
2023-04-12T06:15:43.408Z,62.07
2023-04-12T06:18:12.880Z,62.39
2023-04-12T06:20:40.492Z,62.53
2023-04-12T06:23:07.482Z,62.75
2023-04-12T06:25:35.034Z,62.44
2023-04-12T06:28:02.690Z,62.41
2023-04-12T06:30:30.648Z,62.54
2023-04-12T06:32:57.883Z,62.61
2023-04-12T06:35:25.512Z,62.52
2023-04-12T06:37:52.487Z,62.60
2023-04-12T06:40:19.665Z,62.68
2023-04-12T06:42:46.621Z,62.57
2023-04-12T06:45:21.734Z,62.58
2023-04-12T06:47:48.653Z,62.40
2023-04-12T06:50:15.633Z,61.84
2023-04-12T06:52:42.516Z,61.42
2023-04-12T06:55:09.559Z,61.20
2023-04-12T06:57:36.536Z,61.08
2023-04-12T07:00:04.310Z,61.42
2023-04-12T07:02:31.287Z,61.06
2023-04-12T07:04:58.290Z,61.05
2023-04-12T07:07:25.182Z,60.79
2023-04-12T07:09:52.490Z,59.96
2023-04-12T07:12:19.364Z,59.18
2023-04-12T07:14:46.222Z,58.68
2023-04-12T07:17:13.263Z,58.58
2023-04-12T07:19:41.965Z,58.97
2023-04-12T07:22:08.925Z,58.88
2023-04-12T07:24:35.782Z,58.56
2023-04-12T07:27:02.691Z,58.56
2023-04-12T07:29:29.557Z,57.25
2023-04-12T07:31:56.422Z,57.31
2023-04-12T07:34:24.264Z,56.90
2023-04-12T07:36:51.296Z,56.23
2023-04-12T07:39:18.198Z,56.61
2023-04-12T07:41:46.862Z,55.74
2023-04-12T07:44:13.792Z,55.02
2023-04-12T07:46:41.871Z,55.40
2023-04-12T07:49:10.532Z,54.58
2023-04-12T07:51:37.660Z,54.54
2023-04-12T07:54:05.010Z,54.68
2023-04-12T07:56:35.714Z,54.07
2023-04-12T07:59:02.732Z,54.02
2023-04-12T08:01:30.307Z,53.59
2023-04-12T08:03:57.654Z,53.03
2023-04-12T08:06:25.797Z,52.00
2023-04-12T08:08:54.364Z,51.71
2023-04-12T08:11:21.476Z,51.39
2023-04-12T08:13:48.349Z,52.37
2023-04-12T08:16:15.736Z,51.26
2023-04-12T08:18:42.701Z,51.35
2023-04-12T08:21:09.624Z,51.78
2023-04-12T08:23:36.475Z,51.46
2023-04-12T08:26:03.632Z,51.13
2023-04-12T08:28:31.180Z,50.75
2023-04-12T08:30:59.132Z,50.65
2023-04-12T08:33:26.705Z,51.00
2023-04-12T08:35:53.621Z,51.35
2023-04-12T08:38:25.448Z,50.75
2023-04-12T08:40:58.703Z,49.49
2023-04-12T08:43:29.049Z,49.97
2023-04-12T08:45:58.792Z,49.24
2023-04-12T08:48:27.106Z,48.91
2023-04-12T08:50:57.000Z,48.96
2023-04-12T08:53:23.887Z,48.81
2023-04-12T08:55:51.014Z,48.98
2023-04-12T08:58:18.089Z,48.49
2023-04-12T09:00:46.182Z,47.73
2023-04-12T09:03:13.269Z,48.29
2023-04-12T09:05:40.347Z,48.56
2023-04-12T09:08:07.252Z,48.20
2023-04-12T09:10:38.606Z,46.94
2023-04-12T09:13:06.528Z,46.85
2023-04-12T09:15:34.609Z,46.17
2023-04-12T09:18:08.438Z,47.06
2023-04-12T09:20:35.906Z,45.69
2023-04-12T09:23:26.757Z,45.52
2023-04-12T09:25:53.771Z,45.52
2023-04-12T09:28:24.257Z,45.21
2023-04-12T09:30:56.566Z,44.19
2023-04-12T09:33:39.534Z,44.77
2023-04-12T09:36:14.253Z,44.78
2023-04-12T09:38:43.314Z,42.98
2023-04-12T09:41:26.080Z,42.49
2023-04-12T09:43:53.918Z,41.80
2023-04-12T09:46:20.836Z,42.32
2023-04-12T09:48:55.869Z,42.78
2023-04-12T09:51:32.778Z,43.28
2023-04-12T09:54:05.190Z,41.96
2023-04-12T09:56:37.803Z,42.73
2023-04-12T09:59:07.105Z,42.78
2023-04-12T10:01:39.999Z,40.44
2023-04-12T10:04:09.183Z,40.92
2023-04-12T10:06:41.320Z,40.28
2023-04-12T10:09:08.902Z,40.35
2023-04-12T10:11:37.394Z,40.55
2023-04-12T10:14:06.037Z,39.62
2023-04-12T10:16:35.029Z,39.26
2023-04-12T10:19:05.238Z,37.39
2023-04-12T10:21:32.211Z,37.84
2023-04-12T10:23:59.546Z,37.74
2023-04-12T10:26:27.235Z,37.93
2023-04-12T10:29:33.672Z,38.79
2023-04-12T10:32:24.330Z,39.17
2023-04-12T10:34:58.736Z,38.28
2023-04-12T10:38:04.304Z,37.43
2023-04-12T10:40:33.024Z,37.58
2023-04-12T10:43:28.674Z,36.34
2023-04-12T10:45:55.925Z,36.80
2023-04-12T10:48:52.519Z,37.80
2023-04-12T10:51:30.742Z,37.13
2023-04-12T10:54:07.926Z,37.33
2023-04-12T10:56:35.906Z,37.71
2023-04-12T10:59:07.260Z,37.46
2023-04-12T11:01:41.182Z,36.63
2023-04-12T11:04:20.984Z,35.78
2023-04-12T11:07:02.613Z,35.84
2023-04-12T11:09:48.711Z,35.32
2023-04-12T11:12:28.057Z,34.74
2023-04-12T11:15:01.547Z,34.30
2023-04-12T11:17:42.059Z,34.83
2023-04-12T11:20:13.513Z,34.85
2023-04-12T11:22:41.020Z,34.31
2023-04-12T11:25:09.658Z,34.61
2023-04-12T11:27:38.066Z,35.19
2023-04-12T11:30:05.832Z,34.49
2023-04-12T11:32:36.056Z,34.62
2023-04-12T11:35:03.076Z,35.15
2023-04-12T11:37:35.621Z,34.78
2023-04-12T11:40:05.723Z,34.87
2023-04-12T11:42:33.463Z,34.92
2023-04-12T11:45:06.535Z,34.66
2023-04-12T11:47:45.684Z,34.78
2023-04-12T11:50:12.620Z,34.46
2023-04-12T11:52:41.135Z,34.46
2023-04-12T11:55:11.021Z,34.75
2023-04-12T11:57:39.128Z,34.04
2023-04-12T12:00:08.305Z,33.80
2023-04-12T12:02:52.216Z,34.18
2023-04-12T12:05:24.005Z,34.23
2023-04-12T12:07:52.628Z,33.22
2023-04-12T12:10:37.716Z,33.53
2023-04-12T12:13:14.086Z,33.19
2023-04-12T12:15:45.635Z,32.93
2023-04-12T12:18:12.866Z,33.43
2023-04-12T12:20:50.846Z,32.85
2023-04-12T12:23:32.105Z,33.14
2023-04-12T12:26:16.714Z,33.46
2023-04-12T12:28:53.366Z,32.89
2023-04-12T12:31:22.967Z,32.93
2023-04-12T12:33:53.384Z,32.86
2023-04-12T12:36:21.111Z,32.18
2023-04-12T12:38:49.334Z,32.10
2023-04-12T12:41:19.702Z,32.01
2023-04-12T12:43:46.985Z,32.15
2023-04-12T12:46:14.111Z,32.02
2023-04-12T12:48:42.216Z,32.60
2023-04-12T12:51:10.101Z,32.91
2023-04-12T12:53:37.736Z,32.92
2023-04-12T12:56:05.049Z,33.21
2023-04-12T12:58:32.267Z,32.89
2023-04-12T13:00:59.222Z,32.93
2023-04-12T13:03:26.534Z,32.72
2023-04-12T13:05:53.626Z,33.02
2023-04-12T13:08:20.694Z,32.84
2023-04-12T13:10:47.651Z,33.58
2023-04-12T13:13:14.532Z,32.36
2023-04-12T13:15:41.546Z,33.02
2023-04-12T13:18:08.481Z,32.16
2023-04-12T13:20:35.348Z,32.21
2023-04-12T13:23:02.196Z,32.46
2023-04-12T13:25:29.036Z,32.56
2023-04-12T13:27:56.031Z,32.47
2023-04-12T13:30:22.902Z,33.07
2023-04-12T13:32:49.850Z,33.13
2023-04-12T13:35:16.963Z,33.39
2023-04-12T13:37:43.811Z,33.75
2023-04-12T13:40:10.937Z,34.01
2023-04-12T13:42:37.805Z,33.58
2023-04-12T13:45:05.377Z,33.22
2023-04-12T13:47:33.669Z,33.29
2023-04-12T13:50:03.607Z,33.58
2023-04-12T13:52:30.461Z,33.46
2023-04-12T13:54:57.874Z,33.49
2023-04-12T13:57:24.710Z,33.26
2023-04-12T13:59:51.566Z,33.82
2023-04-12T14:02:18.515Z,34.19
2023-04-12T14:04:53.029Z,34.69
2023-04-12T14:07:20.595Z,34.49
2023-04-12T14:09:48.609Z,34.33
2023-04-12T14:12:15.744Z,34.51
2023-04-12T14:14:42.606Z,34.77
2023-04-12T14:17:09.466Z,34.59
2023-04-12T14:19:36.365Z,35.41
2023-04-12T14:22:03.821Z,35.25
2023-04-12T14:24:31.386Z,34.72
2023-04-12T14:27:00.814Z,34.71
2023-04-12T14:29:27.771Z,35.53
2023-04-12T14:31:54.651Z,35.21
2023-04-12T14:34:21.527Z,35.01
2023-04-12T14:36:48.451Z,35.20
2023-04-12T14:39:16.240Z,35.81
2023-04-12T14:41:43.451Z,35.74
2023-04-12T14:44:10.480Z,35.16
2023-04-12T14:46:37.377Z,35.36
2023-04-12T14:49:04.292Z,36.14
2023-04-12T14:51:32.165Z,36.00
2023-04-12T14:53:59.166Z,36.03
2023-04-12T14:56:30.367Z,35.77
2023-04-12T14:58:58.448Z,36.34
2023-04-12T15:01:25.762Z,35.83
2023-04-12T15:03:53.460Z,35.57
2023-04-12T15:06:23.148Z,35.41
2023-04-12T15:08:57.089Z,36.02
2023-04-12T15:11:26.944Z,35.85
2023-04-12T15:13:54.968Z,35.96
2023-04-12T15:16:22.772Z,36.27
2023-04-12T15:18:51.553Z,36.50
2023-04-12T15:21:18.718Z,35.96
2023-04-12T15:23:46.284Z,36.46
2023-04-12T15:26:14.296Z,36.18
2023-04-12T15:28:41.969Z,35.88
2023-04-12T15:31:09.415Z,35.82
2023-04-12T15:33:37.031Z,35.61
2023-04-12T15:36:04.766Z,36.43
2023-04-12T15:38:31.751Z,36.15
2023-04-12T15:41:02.016Z,36.52
2023-04-12T15:43:29.329Z,36.16
2023-04-12T15:45:56.635Z,36.34
2023-04-12T15:48:25.618Z,36.21
2023-04-12T15:50:55.739Z,36.24
2023-04-12T15:53:27.144Z,36.17
2023-04-12T15:55:57.658Z,36.26
2023-04-12T15:58:26.905Z,36.40
2023-04-12T16:00:54.160Z,36.08
2023-04-12T16:03:23.381Z,36.45
2023-04-12T16:05:54.093Z,36.63
2023-04-12T16:08:22.201Z,36.87
2023-04-12T16:10:50.546Z,36.29
2023-04-12T16:13:18.269Z,36.19
2023-04-12T16:15:45.713Z,35.96
2023-04-12T16:18:12.982Z,36.22
2023-04-12T16:20:42.837Z,36.55
2023-04-12T16:23:09.869Z,36.66
2023-04-12T16:25:36.774Z,36.55
2023-04-12T16:28:03.942Z,35.88
2023-04-12T16:30:35.064Z,36.33
2023-04-12T16:33:02.093Z,35.64
2023-04-12T16:35:29.077Z,35.92
2023-04-12T16:37:56.354Z,35.96
2023-04-12T16:40:24.500Z,36.23
2023-04-12T16:42:51.644Z,36.09
2023-04-12T16:45:18.704Z,36.36
2023-04-12T16:47:47.012Z,36.23
2023-04-12T16:50:14.168Z,36.20
2023-04-12T16:52:41.726Z,35.82
2023-04-12T16:55:12.003Z,36.06
2023-04-12T16:57:44.161Z,36.06
2023-04-12T17:00:20.499Z,35.67
2023-04-12T17:02:50.325Z,35.69
2023-04-12T17:05:18.137Z,36.18
2023-04-12T17:07:50.575Z,36.15
2023-04-12T17:10:19.459Z,36.21
2023-04-12T17:12:48.345Z,35.79
2023-04-12T17:15:17.933Z,35.93
2023-04-12T17:17:50.753Z,35.56
2023-04-12T17:20:20.490Z,35.58
2023-04-12T17:22:48.692Z,35.59
2023-04-12T17:25:16.209Z,35.78
2023-04-12T17:27:44.282Z,35.73
2023-04-12T17:30:12.395Z,35.87
2023-04-12T17:32:40.354Z,36.35
2023-04-12T17:35:08.120Z,36.35
2023-04-12T17:37:36.029Z,36.31
2023-04-12T17:40:05.370Z,36.80
2023-04-12T17:42:32.421Z,36.89
2023-04-12T17:44:59.412Z,36.87
2023-04-12T17:47:26.362Z,36.80
2023-04-12T17:49:53.334Z,37.15
2023-04-12T17:52:20.365Z,37.46
2023-04-12T17:54:47.247Z,37.64
2023-04-12T17:57:14.179Z,38.29
2023-04-12T17:59:41.610Z,38.47
2023-04-12T18:02:08.915Z,38.81
2023-04-12T18:04:36.677Z,39.17
2023-04-12T18:07:04.574Z,39.59
2023-04-12T18:09:31.543Z,39.67
2023-04-12T18:11:58.503Z,40.63
2023-04-12T18:14:25.657Z,41.50
2023-04-12T18:16:52.583Z,41.46
2023-04-12T18:19:19.466Z,41.93
2023-04-12T18:21:48.359Z,42.18
2023-04-12T18:24:16.887Z,41.80
2023-04-12T18:26:45.051Z,42.80
2023-04-12T18:29:14.333Z,43.62
2023-04-12T18:31:41.924Z,43.35
2023-04-12T18:34:09.156Z,43.44
2023-04-12T18:36:39.500Z,44.08
2023-04-12T18:39:07.962Z,43.98
2023-04-12T18:41:34.911Z,43.99
2023-04-12T18:44:01.898Z,44.54
2023-04-12T18:46:29.623Z,44.69
2023-04-12T18:48:56.878Z,44.53
2023-04-12T18:51:23.863Z,45.00
2023-04-12T18:53:51.435Z,44.85
2023-04-12T18:56:23.183Z,45.01
2023-04-12T18:58:56.182Z,45.18
2023-04-12T19:01:25.191Z,45.15
2023-04-12T19:03:52.806Z,45.56
2023-04-12T19:06:19.966Z,45.57
2023-04-12T19:08:46.890Z,45.89
2023-04-12T19:11:13.881Z,45.38
2023-04-12T19:13:40.804Z,45.25
2023-04-12T19:16:08.126Z,45.40
2023-04-12T19:18:35.365Z,45.20
2023-04-12T19:21:03.257Z,45.23
2023-04-12T19:23:30.896Z,45.29
2023-04-12T19:26:00.050Z,45.44
2023-04-12T19:28:27.863Z,45.65
2023-04-12T19:30:57.469Z,45.17
2023-04-12T19:33:24.977Z,45.78
2023-04-12T19:35:52.316Z,45.49
2023-04-12T19:38:21.056Z,45.55
2023-04-12T19:40:48.105Z,45.65
2023-04-12T19:43:15.012Z,45.54
2023-04-12T19:45:42.370Z,45.66
2023-04-12T19:48:09.442Z,45.77
2023-04-12T19:50:36.452Z,45.73
2023-04-12T19:53:03.604Z,45.78
2023-04-12T19:55:30.601Z,45.98
2023-04-12T19:57:58.448Z,46.08
2023-04-12T20:00:25.413Z,46.52
2023-04-12T20:02:54.186Z,46.21
2023-04-12T20:05:23.205Z,46.24
2023-04-12T20:07:52.514Z,46.55
2023-04-12T20:10:20.146Z,46.72
2023-04-12T20:12:47.139Z,46.76
2023-04-12T20:15:14.392Z,46.78
2023-04-12T20:17:43.001Z,46.93
2023-04-12T20:20:12.731Z,46.81
2023-04-12T20:22:41.683Z,47.07
2023-04-12T20:25:10.816Z,47.25
2023-04-12T20:27:39.066Z,47.08
2023-04-12T20:30:08.850Z,47.30
2023-04-12T20:32:36.064Z,47.70
2023-04-12T20:35:06.682Z,47.32
2023-04-12T20:37:33.841Z,47.31
2023-04-12T20:40:00.891Z,47.42
2023-04-12T20:42:27.876Z,47.59
2023-04-12T20:44:54.797Z,47.30
2023-04-12T20:47:22.345Z,47.52
2023-04-12T20:49:50.480Z,47.38
2023-04-12T20:52:18.662Z,47.47
2023-04-12T20:54:45.808Z,47.40
2023-04-12T20:57:13.987Z,47.21
2023-04-12T20:59:41.011Z,47.37
2023-04-12T21:02:09.320Z,47.25
2023-04-12T21:04:36.668Z,47.01
2023-04-12T21:07:04.909Z,46.76
2023-04-12T21:09:31.863Z,46.83
2023-04-12T21:12:02.580Z,46.80
2023-04-12T21:14:29.517Z,46.84
2023-04-12T21:16:56.492Z,46.93
2023-04-12T21:19:23.476Z,46.78
2023-04-12T21:21:51.062Z,46.85
2023-04-12T21:24:18.436Z,46.92
2023-04-12T21:26:54.735Z,46.94
2023-04-12T21:29:21.635Z,47.05
2023-04-12T21:31:48.863Z,47.11
2023-04-12T21:34:17.134Z,46.89
2023-04-12T21:36:44.175Z,47.01
2023-04-12T21:39:11.276Z,47.01
2023-04-12T21:41:38.154Z,47.17
2023-04-12T21:44:05.051Z,46.96
2023-04-12T21:46:31.960Z,47.02
2023-04-12T21:48:59.056Z,46.87
2023-04-12T21:51:26.434Z,46.83
2023-04-12T21:53:53.317Z,46.79
2023-04-12T21:56:20.262Z,46.73
2023-04-12T21:58:47.158Z,46.67
2023-04-12T22:01:14.209Z,46.60
2023-04-12T22:03:43.708Z,46.54
2023-04-12T22:06:11.847Z,46.52
2023-04-12T22:08:42.679Z,46.28
2023-04-12T22:11:11.009Z,46.16
2023-04-12T22:13:41.751Z,46.19
2023-04-12T22:16:13.240Z,46.21
2023-04-12T22:18:41.186Z,46.08
2023-04-12T22:21:08.205Z,46.12
2023-04-12T22:23:38.719Z,46.08
2023-04-12T22:26:07.958Z,46.13
2023-04-12T22:28:37.816Z,45.98
2023-04-12T22:31:08.593Z,46.25
2023-04-12T22:33:36.947Z,46.41
2023-04-12T22:36:05.965Z,46.50
2023-04-12T22:38:37.096Z,46.98
2023-04-12T22:41:04.144Z,47.38
2023-04-12T22:43:42.032Z,48.15
2023-04-12T22:46:15.945Z,49.02
2023-04-12T22:48:48.001Z,49.06
2023-04-12T22:51:15.401Z,50.29
2023-04-12T22:53:43.358Z,51.03
2023-04-12T22:56:11.213Z,52.17
2023-04-12T22:58:40.133Z,53.15
2023-04-12T23:01:07.367Z,53.24
2023-04-12T23:03:34.477Z,53.17
2023-04-12T23:06:02.005Z,53.65
2023-04-12T23:08:29.214Z,53.92
2023-04-12T23:11:02.849Z,54.00
2023-04-12T23:13:33.869Z,54.19
2023-04-12T23:16:03.418Z,54.51
2023-04-12T23:18:30.586Z,54.91
2023-04-12T23:20:57.457Z,55.24
2023-04-12T23:23:27.202Z,55.66
2023-04-12T23:25:55.429Z,56.03
2023-04-12T23:28:24.323Z,56.05
2023-04-12T23:30:51.860Z,56.54
2023-04-12T23:33:20.734Z,56.97
2023-04-12T23:35:52.429Z,56.54
2023-04-12T23:38:34.936Z,56.38
2023-04-12T23:41:03.855Z,56.26
2023-04-12T23:43:32.597Z,56.43
2023-04-12T23:45:59.863Z,56.21
2023-04-12T23:48:27.112Z,56.53
2023-04-12T23:50:54.175Z,56.38
2023-04-12T23:53:21.543Z,56.40
2023-04-12T23:55:52.089Z,56.56
2023-04-12T23:58:20.138Z,56.49
